sensor_id;sensor_type;location;lat;lon;timestamp;P1;durP1;ratioP1;P2;durP2;ratioP2
63259;SDS011;49390;51.380;0.098;2023-03-01T00:01:47;15.73;;;8.38;;
63259;SDS011;49390;51.380;0.098;2023-03-01T00:04:15;18.70;;;9.00;;
63259;SDS011;49390;51.380;0.098;2023-03-01T00:06:43;17.33;;;8.65;;
63259;SDS011;49390;51.380;0.098;2023-03-01T00:09:14;15.48;;;8.77;;
63259;SDS011;49390;51.380;0.098;2023-03-01T00:11:45;15.55;;;8.68;;
63259;SDS011;49390;51.380;0.098;2023-03-01T00:14:12;16.98;;;8.95;;
63259;SDS011;49390;51.380;0.098;2023-03-01T00:16:43;15.82;;;8.43;;
63259;SDS011;49390;51.380;0.098;2023-03-01T00:19:13;15.43;;;9.50;;
63259;SDS011;49390;51.380;0.098;2023-03-01T00:21:45;17.38;;;9.02;;
63259;SDS011;49390;51.380;0.098;2023-03-01T00:24:13;14.25;;;8.43;;
63259;SDS011;49390;51.380;0.098;2023-03-01T00:26:41;17.15;;;8.98;;
63259;SDS011;49390;51.380;0.098;2023-03-01T00:29:10;16.70;;;8.38;;
63259;SDS011;49390;51.380;0.098;2023-03-01T00:31:38;13.13;;;7.75;;
63259;SDS011;49390;51.380;0.098;2023-03-01T00:34:06;14.70;;;8.02;;
63259;SDS011;49390;51.380;0.098;2023-03-01T00:36:35;22.27;;;9.20;;
63259;SDS011;49390;51.380;0.098;2023-03-01T00:39:05;14.93;;;8.52;;
63259;SDS011;49390;51.380;0.098;2023-03-01T00:41:37;17.35;;;8.98;;
63259;SDS011;49390;51.380;0.098;2023-03-01T00:44:05;15.82;;;8.38;;
63259;SDS011;49390;51.380;0.098;2023-03-01T00:46:35;18.63;;;9.55;;
63259;SDS011;49390;51.380;0.098;2023-03-01T00:49:04;19.58;;;9.52;;
63259;SDS011;49390;51.380;0.098;2023-03-01T00:51:32;16.88;;;9.02;;
63259;SDS011;49390;51.380;0.098;2023-03-01T00:54:01;16.88;;;8.65;;
63259;SDS011;49390;51.380;0.098;2023-03-01T00:56:31;16.50;;;8.63;;
63259;SDS011;49390;51.380;0.098;2023-03-01T00:59:00;17.40;;;9.35;;
63259;SDS011;49390;51.380;0.098;2023-03-01T01:01:28;18.27;;;9.32;;
63259;SDS011;49390;51.380;0.098;2023-03-01T01:04:01;17.15;;;9.43;;
63259;SDS011;49390;51.380;0.098;2023-03-01T01:06:36;17.60;;;9.82;;
63259;SDS011;49390;51.380;0.098;2023-03-01T01:09:13;18.20;;;9.82;;
63259;SDS011;49390;51.380;0.098;2023-03-01T01:11:47;17.90;;;9.32;;
63259;SDS011;49390;51.380;0.098;2023-03-01T01:14:18;21.10;;;10.82;;
63259;SDS011;49390;51.380;0.098;2023-03-01T01:16:46;18.85;;;9.80;;
63259;SDS011;49390;51.380;0.098;2023-03-01T01:19:15;19.05;;;9.25;;
63259;SDS011;49390;51.380;0.098;2023-03-01T01:21:43;21.45;;;9.95;;
63259;SDS011;49390;51.380;0.098;2023-03-01T01:24:12;19.52;;;10.23;;
63259;SDS011;49390;51.380;0.098;2023-03-01T01:26:41;20.95;;;9.48;;
63259;SDS011;49390;51.380;0.098;2023-03-01T01:29:09;16.60;;;9.73;;
63259;SDS011;49390;51.380;0.098;2023-03-01T01:31:39;15.70;;;9.75;;
63259;SDS011;49390;51.380;0.098;2023-03-01T01:34:14;17.27;;;9.50;;
63259;SDS011;49390;51.380;0.098;2023-03-01T01:36:46;21.23;;;9.93;;
63259;SDS011;49390;51.380;0.098;2023-03-01T01:39:16;16.80;;;10.77;;
63259;SDS011;49390;51.380;0.098;2023-03-01T01:41:45;17.55;;;9.75;;
63259;SDS011;49390;51.380;0.098;2023-03-01T01:44:23;19.73;;;9.57;;
63259;SDS011;49390;51.380;0.098;2023-03-01T01:57:32;19.85;;;10.07;;
63259;SDS011;49390;51.380;0.098;2023-03-01T02:00:08;16.88;;;9.85;;
63259;SDS011;49390;51.380;0.098;2023-03-01T02:02:43;17.45;;;9.60;;
63259;SDS011;49390;51.380;0.098;2023-03-01T02:05:16;15.77;;;9.30;;
63259;SDS011;49390;51.380;0.098;2023-03-01T02:08:05;19.67;;;9.02;;
63259;SDS011;49390;51.380;0.098;2023-03-01T02:10:33;14.63;;;8.43;;
63259;SDS011;49390;51.380;0.098;2023-03-01T02:13:03;16.27;;;9.00;;
63259;SDS011;49390;51.380;0.098;2023-03-01T02:15:31;17.88;;;10.02;;
63259;SDS011;49390;51.380;0.098;2023-03-01T02:18:02;14.13;;;8.32;;
63259;SDS011;49390;51.380;0.098;2023-03-01T02:21:34;17.08;;;9.18;;
63259;SDS011;49390;51.380;0.098;2023-03-01T02:23:29;19.35;;;8.45;;
63259;SDS011;49390;51.380;0.098;2023-03-01T02:28:38;21.15;;;10.10;;
63259;SDS011;49390;51.380;0.098;2023-03-01T02:31:11;18.92;;;10.02;;
63259;SDS011;49390;51.380;0.098;2023-03-01T02:34:02;16.00;;;8.32;;
63259;SDS011;49390;51.380;0.098;2023-03-01T02:36:34;16.13;;;7.57;;
63259;SDS011;49390;51.380;0.098;2023-03-01T02:41:54;13.30;;;6.97;;
63259;SDS011;49390;51.380;0.098;2023-03-01T02:44:23;14.38;;;6.43;;
63259;SDS011;49390;51.380;0.098;2023-03-01T02:46:55;12.27;;;5.57;;
63259;SDS011;49390;51.380;0.098;2023-03-01T02:49:27;8.32;;;4.90;;
63259;SDS011;49390;51.380;0.098;2023-03-01T02:55:00;9.00;;;3.80;;
63259;SDS011;49390;51.380;0.098;2023-03-01T02:57:33;8.63;;;3.60;;
63259;SDS011;49390;51.380;0.098;2023-03-01T03:00:08;8.23;;;3.83;;
63259;SDS011;49390;51.380;0.098;2023-03-01T03:02:54;12.40;;;3.95;;
63259;SDS011;49390;51.380;0.098;2023-03-01T03:05:27;8.67;;;3.77;;
63259;SDS011;49390;51.380;0.098;2023-03-01T03:07:59;7.05;;;3.67;;
63259;SDS011;49390;51.380;0.098;2023-03-01T03:10:32;7.38;;;3.50;;
63259;SDS011;49390;51.380;0.098;2023-03-01T03:13:04;8.05;;;3.63;;
63259;SDS011;49390;51.380;0.098;2023-03-01T03:15:34;8.32;;;3.97;;
63259;SDS011;49390;51.380;0.098;2023-03-01T03:18:04;8.90;;;4.00;;
63259;SDS011;49390;51.380;0.098;2023-03-01T03:20:34;7.33;;;3.47;;
63259;SDS011;49390;51.380;0.098;2023-03-01T03:23:02;7.57;;;3.60;;
63259;SDS011;49390;51.380;0.098;2023-03-01T03:25:31;7.38;;;3.53;;
63259;SDS011;49390;51.380;0.098;2023-03-01T03:27:59;9.27;;;3.85;;
63259;SDS011;49390;51.380;0.098;2023-03-01T03:30:28;11.15;;;3.90;;
63259;SDS011;49390;51.380;0.098;2023-03-01T03:32:58;7.88;;;3.47;;
63259;SDS011;49390;51.380;0.098;2023-03-01T03:38:03;7.95;;;3.53;;
63259;SDS011;49390;51.380;0.098;2023-03-01T03:40:44;8.32;;;3.60;;
63259;SDS011;49390;51.380;0.098;2023-03-01T03:43:33;7.85;;;3.45;;
63259;SDS011;49390;51.380;0.098;2023-03-01T03:46:03;7.38;;;3.47;;
63259;SDS011;49390;51.380;0.098;2023-03-01T03:48:37;8.80;;;3.10;;
63259;SDS011;49390;51.380;0.098;2023-03-01T03:51:06;9.45;;;3.50;;
63259;SDS011;49390;51.380;0.098;2023-03-01T03:53:38;8.25;;;3.35;;
63259;SDS011;49390;51.380;0.098;2023-03-01T03:56:06;6.97;;;3.15;;
63259;SDS011;49390;51.380;0.098;2023-03-01T03:58:34;7.40;;;3.45;;
63259;SDS011;49390;51.380;0.098;2023-03-01T04:01:02;7.97;;;2.72;;
63259;SDS011;49390;51.380;0.098;2023-03-01T04:03:31;7.20;;;3.10;;
63259;SDS011;49390;51.380;0.098;2023-03-01T04:06:01;5.82;;;2.90;;
63259;SDS011;49390;51.380;0.098;2023-03-01T04:08:31;7.15;;;3.03;;
63259;SDS011;49390;51.380;0.098;2023-03-01T04:11:00;6.82;;;3.00;;
63259;SDS011;49390;51.380;0.098;2023-03-01T04:13:48;7.32;;;3.50;;
63259;SDS011;49390;51.380;0.098;2023-03-01T04:16:17;6.47;;;3.00;;
63259;SDS011;49390;51.380;0.098;2023-03-01T04:18:45;6.32;;;3.30;;
63259;SDS011;49390;51.380;0.098;2023-03-01T04:21:14;9.13;;;2.95;;
63259;SDS011;49390;51.380;0.098;2023-03-01T04:23:42;6.00;;;2.75;;
63259;SDS011;49390;51.380;0.098;2023-03-01T04:26:10;6.25;;;2.60;;
63259;SDS011;49390;51.380;0.098;2023-03-01T04:28:39;6.97;;;3.08;;
63259;SDS011;49390;51.380;0.098;2023-03-01T04:31:13;6.75;;;3.10;;
63259;SDS011;49390;51.380;0.098;2023-03-01T04:33:52;8.00;;;3.08;;
63259;SDS011;49390;51.380;0.098;2023-03-01T04:36:25;6.45;;;2.55;;
63259;SDS011;49390;51.380;0.098;2023-03-01T04:38:55;6.57;;;3.28;;
63259;SDS011;49390;51.380;0.098;2023-03-01T04:41:24;7.82;;;3.00;;
63259;SDS011;49390;51.380;0.098;2023-03-01T04:43:52;6.68;;;3.08;;
63259;SDS011;49390;51.380;0.098;2023-03-01T04:46:20;5.80;;;2.80;;
63259;SDS011;49390;51.380;0.098;2023-03-01T04:48:49;8.15;;;3.20;;
63259;SDS011;49390;51.380;0.098;2023-03-01T04:51:17;13.80;;;3.05;;
63259;SDS011;49390;51.380;0.098;2023-03-01T04:53:45;6.43;;;2.75;;
63259;SDS011;49390;51.380;0.098;2023-03-01T04:56:14;5.60;;;2.70;;
63259;SDS011;49390;51.380;0.098;2023-03-01T04:58:43;5.18;;;2.70;;
63259;SDS011;49390;51.380;0.098;2023-03-01T05:01:12;5.72;;;2.40;;
63259;SDS011;49390;51.380;0.098;2023-03-01T05:03:43;5.95;;;2.90;;
63259;SDS011;49390;51.380;0.098;2023-03-01T05:06:13;4.05;;;2.40;;
63259;SDS011;49390;51.380;0.098;2023-03-01T05:08:42;6.25;;;2.97;;
63259;SDS011;49390;51.380;0.098;2023-03-01T05:11:11;7.18;;;2.97;;
63259;SDS011;49390;51.380;0.098;2023-03-01T05:13:40;6.00;;;2.60;;
63259;SDS011;49390;51.380;0.098;2023-03-01T05:16:08;4.18;;;2.17;;
63259;SDS011;49390;51.380;0.098;2023-03-01T05:18:39;6.05;;;2.55;;
63259;SDS011;49390;51.380;0.098;2023-03-01T05:21:09;4.85;;;2.78;;
63259;SDS011;49390;51.380;0.098;2023-03-01T05:23:39;7.63;;;2.67;;
63259;SDS011;49390;51.380;0.098;2023-03-01T05:26:25;4.80;;;2.50;;
63259;SDS011;49390;51.380;0.098;2023-03-01T05:28:56;4.67;;;2.43;;
63259;SDS011;49390;51.380;0.098;2023-03-01T05:31:26;5.50;;;2.90;;
63259;SDS011;49390;51.380;0.098;2023-03-01T05:33:55;5.03;;;2.97;;
63259;SDS011;49390;51.380;0.098;2023-03-01T05:36:23;4.22;;;2.75;;
63259;SDS011;49390;51.380;0.098;2023-03-01T05:38:51;5.50;;;2.88;;
63259;SDS011;49390;51.380;0.098;2023-03-01T05:41:18;5.10;;;2.92;;
63259;SDS011;49390;51.380;0.098;2023-03-01T05:43:46;4.53;;;2.58;;
63259;SDS011;49390;51.380;0.098;2023-03-01T05:46:14;5.15;;;3.05;;
63259;SDS011;49390;51.380;0.098;2023-03-01T05:48:42;4.95;;;3.10;;
63259;SDS011;49390;51.380;0.098;2023-03-01T05:51:10;6.05;;;2.88;;
63259;SDS011;49390;51.380;0.098;2023-03-01T05:53:40;6.22;;;3.00;;
63259;SDS011;49390;51.380;0.098;2023-03-01T05:56:08;5.63;;;2.65;;
63259;SDS011;49390;51.380;0.098;2023-03-01T05:58:36;6.20;;;2.60;;
63259;SDS011;49390;51.380;0.098;2023-03-01T06:01:05;5.38;;;2.90;;
63259;SDS011;49390;51.380;0.098;2023-03-01T06:03:39;6.00;;;3.17;;
63259;SDS011;49390;51.380;0.098;2023-03-01T06:06:07;5.80;;;3.30;;
63259;SDS011;49390;51.380;0.098;2023-03-01T06:08:35;6.72;;;3.30;;
63259;SDS011;49390;51.380;0.098;2023-03-01T06:11:02;6.10;;;3.25;;
63259;SDS011;49390;51.380;0.098;2023-03-01T06:13:30;6.35;;;3.00;;
63259;SDS011;49390;51.380;0.098;2023-03-01T06:15:58;6.63;;;3.40;;
63259;SDS011;49390;51.380;0.098;2023-03-01T06:18:26;6.07;;;2.65;;
63259;SDS011;49390;51.380;0.098;2023-03-01T06:20:54;5.82;;;3.00;;
63259;SDS011;49390;51.380;0.098;2023-03-01T06:23:23;6.25;;;3.33;;
63259;SDS011;49390;51.380;0.098;2023-03-01T06:25:51;8.00;;;3.50;;
63259;SDS011;49390;51.380;0.098;2023-03-01T06:28:20;5.80;;;3.55;;
63259;SDS011;49390;51.380;0.098;2023-03-01T06:30:49;6.35;;;3.92;;
63259;SDS011;49390;51.380;0.098;2023-03-01T06:33:19;6.07;;;3.55;;
63259;SDS011;49390;51.380;0.098;2023-03-01T06:35:51;6.53;;;3.40;;
63259;SDS011;49390;51.380;0.098;2023-03-01T06:38:24;6.82;;;3.55;;
63259;SDS011;49390;51.380;0.098;2023-03-01T06:40:52;6.43;;;3.45;;
63259;SDS011;49390;51.380;0.098;2023-03-01T06:43:22;6.55;;;3.72;;
63259;SDS011;49390;51.380;0.098;2023-03-01T06:45:50;7.30;;;3.47;;
63259;SDS011;49390;51.380;0.098;2023-03-01T06:48:21;7.55;;;4.03;;
63259;SDS011;49390;51.380;0.098;2023-03-01T06:50:48;6.43;;;3.78;;
63259;SDS011;49390;51.380;0.098;2023-03-01T06:53:17;7.20;;;4.10;;
63259;SDS011;49390;51.380;0.098;2023-03-01T06:55:45;7.95;;;3.67;;
63259;SDS011;49390;51.380;0.098;2023-03-01T06:58:13;7.07;;;3.70;;
63259;SDS011;49390;51.380;0.098;2023-03-01T07:00:40;7.47;;;3.60;;
63259;SDS011;49390;51.380;0.098;2023-03-01T07:03:10;6.95;;;4.07;;
63259;SDS011;49390;51.380;0.098;2023-03-01T07:05:38;7.53;;;3.88;;
63259;SDS011;49390;51.380;0.098;2023-03-01T07:08:06;7.45;;;3.92;;
63259;SDS011;49390;51.380;0.098;2023-03-01T07:10:34;9.52;;;3.83;;
63259;SDS011;49390;51.380;0.098;2023-03-01T07:13:02;5.65;;;3.10;;
63259;SDS011;49390;51.380;0.098;2023-03-01T07:15:30;5.68;;;3.22;;
63259;SDS011;49390;51.380;0.098;2023-03-01T07:17:59;6.25;;;3.40;;
63259;SDS011;49390;51.380;0.098;2023-03-01T07:20:28;7.45;;;2.80;;
63259;SDS011;49390;51.380;0.098;2023-03-01T07:22:55;9.77;;;3.88;;
63259;SDS011;49390;51.380;0.098;2023-03-01T07:25:26;6.00;;;2.95;;
63259;SDS011;49390;51.380;0.098;2023-03-01T07:27:53;8.05;;;2.90;;
63259;SDS011;49390;51.380;0.098;2023-03-01T07:30:22;5.60;;;3.35;;
63259;SDS011;49390;51.380;0.098;2023-03-01T07:32:56;5.88;;;2.70;;
63259;SDS011;49390;51.380;0.098;2023-03-01T07:35:25;6.20;;;2.90;;
63259;SDS011;49390;51.380;0.098;2023-03-01T07:37:54;5.40;;;2.78;;
63259;SDS011;49390;51.380;0.098;2023-03-01T07:40:22;6.07;;;2.92;;
63259;SDS011;49390;51.380;0.098;2023-03-01T07:42:54;4.97;;;2.30;;
63259;SDS011;49390;51.380;0.098;2023-03-01T07:45:24;6.05;;;2.90;;
63259;SDS011;49390;51.380;0.098;2023-03-01T07:47:52;6.68;;;2.60;;
63259;SDS011;49390;51.380;0.098;2023-03-01T07:50:21;5.30;;;2.40;;
63259;SDS011;49390;51.380;0.098;2023-03-01T07:52:49;5.60;;;2.60;;
63259;SDS011;49390;51.380;0.098;2023-03-01T07:55:17;6.32;;;2.92;;
63259;SDS011;49390;51.380;0.098;2023-03-01T07:57:46;8.15;;;2.75;;
63259;SDS011;49390;51.380;0.098;2023-03-01T08:00:14;5.70;;;2.40;;
63259;SDS011;49390;51.380;0.098;2023-03-01T08:02:42;7.03;;;2.88;;
63259;SDS011;49390;51.380;0.098;2023-03-01T08:05:10;5.57;;;2.35;;
63259;SDS011;49390;51.380;0.098;2023-03-01T08:07:38;6.47;;;2.53;;
63259;SDS011;49390;51.380;0.098;2023-03-01T08:10:06;6.10;;;2.53;;
63259;SDS011;49390;51.380;0.098;2023-03-01T08:12:34;5.90;;;2.47;;
63259;SDS011;49390;51.380;0.098;2023-03-01T08:15:03;5.88;;;2.63;;
63259;SDS011;49390;51.380;0.098;2023-03-01T08:17:31;6.25;;;2.28;;
63259;SDS011;49390;51.380;0.098;2023-03-01T08:19:59;7.20;;;2.60;;
63259;SDS011;49390;51.380;0.098;2023-03-01T08:22:29;4.50;;;2.20;;
63259;SDS011;49390;51.380;0.098;2023-03-01T08:24:57;6.07;;;2.60;;
63259;SDS011;49390;51.380;0.098;2023-03-01T08:27:25;5.35;;;2.40;;
63259;SDS011;49390;51.380;0.098;2023-03-01T08:29:53;7.40;;;2.50;;
63259;SDS011;49390;51.380;0.098;2023-03-01T08:32:21;5.55;;;2.45;;
63259;SDS011;49390;51.380;0.098;2023-03-01T08:34:49;5.43;;;2.53;;
63259;SDS011;49390;51.380;0.098;2023-03-01T08:37:17;4.28;;;1.90;;
63259;SDS011;49390;51.380;0.098;2023-03-01T08:39:46;3.83;;;2.03;;
63259;SDS011;49390;51.380;0.098;2023-03-01T08:42:13;7.90;;;2.40;;
63259;SDS011;49390;51.380;0.098;2023-03-01T08:44:41;6.32;;;2.75;;
63259;SDS011;49390;51.380;0.098;2023-03-01T08:47:12;5.40;;;2.30;;
63259;SDS011;49390;51.380;0.098;2023-03-01T08:49:40;6.72;;;2.50;;
63259;SDS011;49390;51.380;0.098;2023-03-01T08:52:08;5.50;;;3.00;;
63259;SDS011;49390;51.380;0.098;2023-03-01T08:54:36;6.10;;;2.58;;
63259;SDS011;49390;51.380;0.098;2023-03-01T08:57:04;5.63;;;2.33;;
63259;SDS011;49390;51.380;0.098;2023-03-01T08:59:32;4.18;;;2.10;;
63259;SDS011;49390;51.380;0.098;2023-03-01T09:02:04;5.43;;;2.42;;
63259;SDS011;49390;51.380;0.098;2023-03-01T09:04:38;3.47;;;2.03;;
63259;SDS011;49390;51.380;0.098;2023-03-01T09:07:07;6.55;;;2.33;;
63259;SDS011;49390;51.380;0.098;2023-03-01T09:09:36;6.07;;;1.80;;
63259;SDS011;49390;51.380;0.098;2023-03-01T09:12:04;5.25;;;2.40;;
63259;SDS011;49390;51.380;0.098;2023-03-01T09:14:33;3.97;;;2.08;;
63259;SDS011;49390;51.380;0.098;2023-03-01T09:17:00;4.38;;;2.20;;
63259;SDS011;49390;51.380;0.098;2023-03-01T09:19:30;5.40;;;2.17;;
63259;SDS011;49390;51.380;0.098;2023-03-01T09:21:58;7.70;;;2.65;;
63259;SDS011;49390;51.380;0.098;2023-03-01T09:24:26;6.60;;;2.60;;
63259;SDS011;49390;51.380;0.098;2023-03-01T09:26:54;5.15;;;2.15;;
63259;SDS011;49390;51.380;0.098;2023-03-01T09:29:23;5.50;;;2.40;;
63259;SDS011;49390;51.380;0.098;2023-03-01T09:31:51;5.43;;;2.33;;
63259;SDS011;49390;51.380;0.098;2023-03-01T09:34:22;4.25;;;2.40;;
63259;SDS011;49390;51.380;0.098;2023-03-01T09:36:51;7.68;;;3.00;;
63259;SDS011;49390;51.380;0.098;2023-03-01T09:39:19;6.88;;;2.70;;
63259;SDS011;49390;51.380;0.098;2023-03-01T09:44:29;7.18;;;3.30;;
63259;SDS011;49390;51.380;0.098;2023-03-01T09:47:03;7.30;;;2.90;;
63259;SDS011;49390;51.380;0.098;2023-03-01T09:49:35;5.80;;;2.40;;
63259;SDS011;49390;51.380;0.098;2023-03-01T09:54:36;5.85;;;2.67;;
63259;SDS011;49390;51.380;0.098;2023-03-01T10:02:44;5.25;;;2.55;;
63259;SDS011;49390;51.380;0.098;2023-03-01T10:11:27;7.28;;;2.83;;
63259;SDS011;49390;51.380;0.098;2023-03-01T10:19:50;6.90;;;2.40;;
63259;SDS011;49390;51.380;0.098;2023-03-01T10:22:19;3.42;;;2.17;;
63259;SDS011;49390;51.380;0.098;2023-03-01T10:24:59;5.50;;;2.03;;
63259;SDS011;49390;51.380;0.098;2023-03-01T10:27:38;6.10;;;2.25;;
63259;SDS011;49390;51.380;0.098;2023-03-01T10:30:22;5.10;;;1.88;;
63259;SDS011;49390;51.380;0.098;2023-03-01T10:33:02;3.35;;;1.88;;
63259;SDS011;49390;51.380;0.098;2023-03-01T10:35:33;3.83;;;1.63;;
63259;SDS011;49390;51.380;0.098;2023-03-01T10:38:03;4.97;;;2.08;;
63259;SDS011;49390;51.380;0.098;2023-03-01T10:40:36;2.42;;;1.67;;
63259;SDS011;49390;51.380;0.098;2023-03-01T10:43:20;2.30;;;1.52;;
63259;SDS011;49390;51.380;0.098;2023-03-01T10:45:48;3.58;;;1.75;;
63259;SDS011;49390;51.380;0.098;2023-03-01T10:48:18;3.85;;;2.08;;
63259;SDS011;49390;51.380;0.098;2023-03-01T10:53:28;4.22;;;1.90;;
63259;SDS011;49390;51.380;0.098;2023-03-01T10:58:31;4.60;;;2.10;;
63259;SDS011;49390;51.380;0.098;2023-03-01T11:03:36;13.07;;;2.00;;
63259;SDS011;49390;51.380;0.098;2023-03-01T11:11:17;2.30;;;1.50;;
63259;SDS011;49390;51.380;0.098;2023-03-01T11:24:09;5.30;;;1.80;;
63259;SDS011;49390;51.380;0.098;2023-03-01T11:26:41;2.92;;;1.70;;
63259;SDS011;49390;51.380;0.098;2023-03-01T11:29:16;2.80;;;1.85;;
63259;SDS011;49390;51.380;0.098;2023-03-01T11:31:59;2.40;;;1.60;;
63259;SDS011;49390;51.380;0.098;2023-03-01T11:34:36;5.20;;;1.92;;
63259;SDS011;49390;51.380;0.098;2023-03-01T11:38:29;5.53;;;1.90;;
63259;SDS011;49390;51.380;0.098;2023-03-01T11:43:52;4.85;;;2.13;;
63259;SDS011;49390;51.380;0.098;2023-03-01T11:57:08;3.45;;;1.60;;
63259;SDS011;49390;51.380;0.098;2023-03-01T12:11:40;3.28;;;1.70;;
63259;SDS011;49390;51.380;0.098;2023-03-01T12:25:48;3.92;;;1.90;;
63259;SDS011;49390;51.380;0.098;2023-03-01T12:34:12;4.97;;;2.20;;
63259;SDS011;49390;51.380;0.098;2023-03-01T12:48:13;5.68;;;2.03;;
63259;SDS011;49390;51.380;0.098;2023-03-01T12:50:52;4.90;;;2.28;;
63259;SDS011;49390;51.380;0.098;2023-03-01T12:55:54;8.75;;;2.25;;
63259;SDS011;49390;51.380;0.098;2023-03-01T13:10:06;4.45;;;2.20;;
63259;SDS011;49390;51.380;0.098;2023-03-01T13:17:50;6.57;;;2.70;;
63259;SDS011;49390;51.380;0.098;2023-03-01T13:20:31;7.07;;;3.20;;
63259;SDS011;49390;51.380;0.098;2023-03-01T13:23:04;7.25;;;3.53;;
63259;SDS011;49390;51.380;0.098;2023-03-01T13:33:50;4.35;;;2.38;;
63259;SDS011;49390;51.380;0.098;2023-03-01T13:38:57;5.10;;;2.38;;
63259;SDS011;49390;51.380;0.098;2023-03-01T13:46:50;4.13;;;2.08;;
63259;SDS011;49390;51.380;0.098;2023-03-01T13:49:47;4.90;;;2.10;;
63259;SDS011;49390;51.380;0.098;2023-03-01T13:54:51;6.45;;;2.30;;
63259;SDS011;49390;51.380;0.098;2023-03-01T13:57:23;4.90;;;2.30;;
63259;SDS011;49390;51.380;0.098;2023-03-01T13:59:57;6.90;;;2.33;;
63259;SDS011;49390;51.380;0.098;2023-03-01T14:02:25;7.82;;;2.63;;
63259;SDS011;49390;51.380;0.098;2023-03-01T14:04:59;7.28;;;2.53;;
63259;SDS011;49390;51.380;0.098;2023-03-01T14:07:28;5.45;;;2.40;;
63259;SDS011;49390;51.380;0.098;2023-03-01T14:10:00;4.20;;;2.35;;
63259;SDS011;49390;51.380;0.098;2023-03-01T14:20:32;4.38;;;2.38;;
63259;SDS011;49390;51.380;0.098;2023-03-01T14:23:10;4.95;;;2.17;;
63259;SDS011;49390;51.380;0.098;2023-03-01T14:25:48;4.70;;;2.20;;
63259;SDS011;49390;51.380;0.098;2023-03-01T14:28:24;5.88;;;2.13;;
63259;SDS011;49390;51.380;0.098;2023-03-01T14:30:54;6.65;;;2.90;;
63259;SDS011;49390;51.380;0.098;2023-03-01T14:35:54;5.05;;;2.45;;
63259;SDS011;49390;51.380;0.098;2023-03-01T14:38:29;4.03;;;2.20;;
63259;SDS011;49390;51.380;0.098;2023-03-01T14:40:58;9.90;;;2.58;;
63259;SDS011;49390;51.380;0.098;2023-03-01T14:43:31;5.55;;;2.70;;
63259;SDS011;49390;51.380;0.098;2023-03-01T14:46:02;4.68;;;2.10;;
63259;SDS011;49390;51.380;0.098;2023-03-01T14:48:30;7.10;;;2.80;;
63259;SDS011;49390;51.380;0.098;2023-03-01T14:50:59;6.20;;;2.65;;
63259;SDS011;49390;51.380;0.098;2023-03-01T14:53:28;8.45;;;3.15;;
63259;SDS011;49390;51.380;0.098;2023-03-01T14:58:21;9.15;;;2.47;;
63259;SDS011;49390;51.380;0.098;2023-03-01T15:03:34;5.57;;;2.60;;
63259;SDS011;49390;51.380;0.098;2023-03-01T15:06:17;4.07;;;2.15;;
63259;SDS011;49390;51.380;0.098;2023-03-01T15:08:48;5.68;;;2.90;;
63259;SDS011;49390;51.380;0.098;2023-03-01T15:13:52;4.75;;;2.20;;
63259;SDS011;49390;51.380;0.098;2023-03-01T15:16:31;4.82;;;2.50;;
63259;SDS011;49390;51.380;0.098;2023-03-01T15:19:02;5.88;;;2.65;;
63259;SDS011;49390;51.380;0.098;2023-03-01T15:21:33;6.07;;;2.47;;
63259;SDS011;49390;51.380;0.098;2023-03-01T15:24:07;5.03;;;2.50;;
63259;SDS011;49390;51.380;0.098;2023-03-01T15:26:52;6.10;;;2.35;;
63259;SDS011;49390;51.380;0.098;2023-03-01T15:29:25;6.18;;;2.50;;
63259;SDS011;49390;51.380;0.098;2023-03-01T15:34:34;5.20;;;2.42;;
63259;SDS011;49390;51.380;0.098;2023-03-01T15:37:37;5.43;;;2.30;;
63259;SDS011;49390;51.380;0.098;2023-03-01T15:43:01;5.90;;;2.88;;
63259;SDS011;49390;51.380;0.098;2023-03-01T15:45:32;4.83;;;2.53;;
63259;SDS011;49390;51.380;0.098;2023-03-01T15:48:17;7.28;;;3.03;;
63259;SDS011;49390;51.380;0.098;2023-03-01T15:50:53;7.90;;;3.13;;
63259;SDS011;49390;51.380;0.098;2023-03-01T15:53:22;6.88;;;2.75;;
63259;SDS011;49390;51.380;0.098;2023-03-01T15:55:51;7.97;;;3.15;;
63259;SDS011;49390;51.380;0.098;2023-03-01T15:58:20;6.05;;;2.60;;
63259;SDS011;49390;51.380;0.098;2023-03-01T16:00:49;6.07;;;3.00;;
63259;SDS011;49390;51.380;0.098;2023-03-01T16:03:28;11.15;;;3.75;;
63259;SDS011;49390;51.380;0.098;2023-03-01T16:05:56;10.30;;;3.55;;
63259;SDS011;49390;51.380;0.098;2023-03-01T16:08:25;11.55;;;4.25;;
63259;SDS011;49390;51.380;0.098;2023-03-01T16:10:52;8.25;;;3.33;;
63259;SDS011;49390;51.380;0.098;2023-03-01T16:13:22;5.32;;;3.10;;
63259;SDS011;49390;51.380;0.098;2023-03-01T16:15:50;5.97;;;2.83;;
63259;SDS011;49390;51.380;0.098;2023-03-01T16:18:19;9.18;;;2.95;;
63259;SDS011;49390;51.380;0.098;2023-03-01T16:20:49;7.35;;;3.13;;
63259;SDS011;49390;51.380;0.098;2023-03-01T16:23:17;9.57;;;3.28;;
63259;SDS011;49390;51.380;0.098;2023-03-01T16:25:44;7.32;;;2.90;;
63259;SDS011;49390;51.380;0.098;2023-03-01T16:28:12;5.88;;;2.72;;
63259;SDS011;49390;51.380;0.098;2023-03-01T16:30:44;8.68;;;3.00;;
63259;SDS011;49390;51.380;0.098;2023-03-01T16:33:18;7.93;;;3.45;;
63259;SDS011;49390;51.380;0.098;2023-03-01T16:35:59;7.28;;;3.10;;
63259;SDS011;49390;51.380;0.098;2023-03-01T16:38:30;10.80;;;2.93;;
63259;SDS011;49390;51.380;0.098;2023-03-01T16:40:59;6.70;;;3.58;;
63259;SDS011;49390;51.380;0.098;2023-03-01T16:43:28;8.65;;;3.67;;
63259;SDS011;49390;51.380;0.098;2023-03-01T16:45:56;6.57;;;3.25;;
63259;SDS011;49390;51.380;0.098;2023-03-01T16:48:26;6.90;;;3.45;;
63259;SDS011;49390;51.380;0.098;2023-03-01T16:50:57;6.03;;;3.10;;
63259;SDS011;49390;51.380;0.098;2023-03-01T16:53:27;7.53;;;3.55;;
63259;SDS011;49390;51.380;0.098;2023-03-01T16:55:58;11.07;;;3.60;;
63259;SDS011;49390;51.380;0.098;2023-03-01T16:58:29;5.75;;;3.03;;
63259;SDS011;49390;51.380;0.098;2023-03-01T17:01:03;11.95;;;3.58;;
63259;SDS011;49390;51.380;0.098;2023-03-01T17:03:43;9.02;;;3.83;;
63259;SDS011;49390;51.380;0.098;2023-03-01T17:06:14;5.72;;;3.20;;
63259;SDS011;49390;51.380;0.098;2023-03-01T17:11:16;9.18;;;4.03;;
63259;SDS011;49390;51.380;0.098;2023-03-01T17:13:48;11.25;;;5.25;;
63259;SDS011;49390;51.380;0.098;2023-03-01T17:16:17;10.05;;;4.65;;
63259;SDS011;49390;51.380;0.098;2023-03-01T17:18:47;7.03;;;3.60;;
63259;SDS011;49390;51.380;0.098;2023-03-01T17:21:16;5.95;;;2.53;;
63259;SDS011;49390;51.380;0.098;2023-03-01T17:23:46;7.43;;;2.78;;
63259;SDS011;49390;51.380;0.098;2023-03-01T17:26:16;4.57;;;2.60;;
63259;SDS011;49390;51.380;0.098;2023-03-01T17:28:44;6.45;;;2.83;;
63259;SDS011;49390;51.380;0.098;2023-03-01T17:31:18;5.20;;;2.67;;
63259;SDS011;49390;51.380;0.098;2023-03-01T17:33:47;5.32;;;3.00;;
63259;SDS011;49390;51.380;0.098;2023-03-01T17:36:16;8.07;;;3.28;;
63259;SDS011;49390;51.380;0.098;2023-03-01T17:38:44;7.20;;;2.97;;
63259;SDS011;49390;51.380;0.098;2023-03-01T17:41:13;5.35;;;2.50;;
63259;SDS011;49390;51.380;0.098;2023-03-01T17:43:44;6.22;;;2.90;;
63259;SDS011;49390;51.380;0.098;2023-03-01T17:46:12;6.43;;;2.78;;
63259;SDS011;49390;51.380;0.098;2023-03-01T17:48:41;7.40;;;3.05;;
63259;SDS011;49390;51.380;0.098;2023-03-01T17:51:09;7.18;;;2.70;;
63259;SDS011;49390;51.380;0.098;2023-03-01T17:53:38;6.90;;;2.83;;
63259;SDS011;49390;51.380;0.098;2023-03-01T17:56:06;5.85;;;3.28;;
63259;SDS011;49390;51.380;0.098;2023-03-01T17:58:34;6.88;;;2.67;;
63259;SDS011;49390;51.380;0.098;2023-03-01T18:01:06;8.18;;;2.85;;
63259;SDS011;49390;51.380;0.098;2023-03-01T18:03:52;6.13;;;2.85;;
63259;SDS011;49390;51.380;0.098;2023-03-01T18:06:21;8.70;;;3.45;;
63259;SDS011;49390;51.380;0.098;2023-03-01T18:08:51;8.55;;;3.40;;
63259;SDS011;49390;51.380;0.098;2023-03-01T18:11:24;9.07;;;3.33;;
63259;SDS011;49390;51.380;0.098;2023-03-01T18:13:54;6.28;;;3.42;;
63259;SDS011;49390;51.380;0.098;2023-03-01T18:16:22;6.82;;;3.40;;